createdAt,value
2022-08-04T00:00:27.016Z,54.85
2022-08-04T00:03:11.569Z,54.99
2022-08-04T00:05:48.276Z,55.01
2022-08-04T00:08:25.932Z,55.12
2022-08-04T00:10:56.669Z,55.24
2022-08-04T00:13:26.851Z,55.28
2022-08-04T00:15:58.949Z,55.45
2022-08-04T00:18:58.454Z,55.45
2022-08-04T00:21:28.131Z,55.48
2022-08-04T00:24:11.745Z,55.42
2022-08-04T00:26:41.611Z,55.56
2022-08-04T00:29:10.874Z,55.51
2022-08-04T00:31:56.070Z,55.63
2022-08-04T00:34:28.701Z,55.64
2022-08-04T00:36:58.469Z,55.57
2022-08-04T00:39:27.910Z,55.90
2022-08-04T00:42:17.341Z,55.86
2022-08-04T00:45:00.670Z,55.97
2022-08-04T00:47:40.625Z,55.92
2022-08-04T00:50:10.060Z,55.97
2022-08-04T00:52:47.168Z,56.03
2022-08-04T00:55:36.885Z,56.20
2022-08-04T00:58:30.144Z,56.21
2022-08-04T01:01:06.928Z,56.26
2022-08-04T01:03:43.762Z,56.34
2022-08-04T01:06:28.457Z,56.43
2022-08-04T01:09:02.300Z,56.41
2022-08-04T01:11:58.117Z,56.34
2022-08-04T01:14:44.114Z,56.44
2022-08-04T01:17:26.372Z,56.53
2022-08-04T01:19:56.916Z,56.61
2022-08-04T01:22:33.779Z,56.62
2022-08-04T01:25:39.282Z,56.53
2022-08-04T01:28:13.037Z,56.61
2022-08-04T01:30:43.573Z,56.63
2022-08-04T01:33:16.337Z,56.70
2022-08-04T01:35:55.715Z,56.72
2022-08-04T01:38:29.142Z,56.74
2022-08-04T01:41:02.848Z,56.83
2022-08-04T01:43:32.992Z,56.83
2022-08-04T01:46:03.595Z,56.87
2022-08-04T01:48:32.989Z,56.98
2022-08-04T01:51:08.469Z,56.93
2022-08-04T01:53:40.840Z,57.10
2022-08-04T01:56:11.096Z,57.12
2022-08-04T01:58:40.770Z,57.21
2022-08-04T02:01:11.721Z,57.27
2022-08-04T02:04:20.160Z,57.26
2022-08-04T02:06:53.003Z,57.32
2022-08-04T02:09:54.502Z,57.49
2022-08-04T02:12:34.396Z,57.60
2022-08-04T02:15:18.849Z,57.61
2022-08-04T02:17:56.864Z,57.75
2022-08-04T02:20:30.158Z,57.79
2022-08-04T02:22:59.867Z,57.89
2022-08-04T02:25:30.037Z,58.10
2022-08-04T02:28:05.425Z,58.23
2022-08-04T02:30:56.291Z,58.42
2022-08-04T02:33:55.332Z,58.52
2022-08-04T02:36:35.937Z,58.57
2022-08-04T02:39:08.064Z,58.69
2022-08-04T02:41:37.811Z,58.66
2022-08-04T02:44:09.245Z,58.85
2022-08-04T02:46:38.986Z,58.94
2022-08-04T02:49:09.765Z,59.21
2022-08-04T02:51:42.690Z,59.29
2022-08-04T02:54:11.647Z,59.41
2022-08-04T02:56:40.580Z,59.53
2022-08-04T02:59:12.539Z,59.74
2022-08-04T03:01:56.894Z,59.90
2022-08-04T03:04:50.718Z,60.15
2022-08-04T03:07:37.465Z,60.23
2022-08-04T03:10:38.079Z,60.51
2022-08-04T03:13:38.343Z,60.62
2022-08-04T03:16:25.192Z,60.82
2022-08-04T03:19:43.648Z,60.94
2022-08-04T03:22:59.857Z,61.05
2022-08-04T03:25:57.690Z,61.26
2022-08-04T03:28:54.762Z,61.46
2022-08-04T03:31:41.414Z,61.41
2022-08-04T03:34:31.060Z,61.58
2022-08-04T03:37:01.654Z,61.51
2022-08-04T03:40:08.947Z,61.75
2022-08-04T03:43:07.805Z,61.73
2022-08-04T03:46:11.568Z,61.68
2022-08-04T03:49:01.035Z,61.70
2022-08-04T03:51:47.743Z,61.83
2022-08-04T03:54:46.435Z,61.84
2022-08-04T03:57:26.944Z,61.75
2022-08-04T04:00:13.647Z,61.74
2022-08-04T04:02:48.091Z,61.91
2022-08-04T04:05:31.301Z,61.82
2022-08-04T04:08:19.272Z,61.93
2022-08-04T04:10:58.008Z,61.72
2022-08-04T04:13:47.579Z,61.49
2022-08-04T04:16:42.072Z,61.55
2022-08-04T04:19:10.056Z,61.52
2022-08-04T04:21:56.435Z,61.41
2022-08-04T04:24:48.919Z,61.35
2022-08-04T04:27:38.498Z,61.18
2022-08-04T04:30:26.899Z,61.27
2022-08-04T04:32:57.689Z,60.92
2022-08-04T04:35:35.843Z,60.78
2022-08-04T04:38:35.912Z,60.61
2022-08-04T04:41:31.976Z,60.28
2022-08-04T04:44:30.698Z,59.06
2022-08-04T04:47:09.697Z,57.78
2022-08-04T04:50:03.732Z,56.52
2022-08-04T04:52:49.769Z,54.53
2022-08-04T04:55:39.844Z,51.85
2022-08-04T04:58:12.853Z,50.24
2022-08-04T05:01:07.565Z,48.09
2022-08-04T05:03:57.331Z,46.14
2022-08-04T05:06:37.209Z,45.48
2022-08-04T05:09:34.623Z,44.25
2022-08-04T05:14:22.892Z,43.75
2022-08-04T05:15:03.879Z,42.45
2022-08-04T05:17:40.306Z,42.33
2022-08-04T05:20:24.377Z,42.31
2022-08-04T05:22:58.422Z,41.71
2022-08-04T05:25:41.224Z,41.28
2022-08-04T05:28:40.179Z,41.71
2022-08-04T05:31:24.665Z,42.11
2022-08-04T05:33:57.664Z,41.80
2022-08-04T05:36:41.404Z,41.36
2022-08-04T05:39:19.376Z,39.80
2022-08-04T05:41:55.190Z,38.84
2022-08-04T05:44:28.280Z,38.31
2022-08-04T05:46:58.085Z,38.11
2022-08-04T05:49:29.902Z,37.61
2022-08-04T05:52:01.768Z,36.78
2022-08-04T05:54:35.274Z,36.49
2022-08-04T05:57:05.415Z,35.82
2022-08-04T05:59:38.906Z,35.91
2022-08-04T06:02:09.923Z,35.83
2022-08-04T06:04:40.712Z,35.57
2022-08-04T06:07:11.404Z,36.08
2022-08-04T06:09:40.079Z,36.19
2022-08-04T06:12:14.844Z,36.41
2022-08-04T06:14:45.656Z,35.94
2022-08-04T06:18:58.544Z,35.80
2022-08-04T06:20:19.227Z,35.64
2022-08-04T06:22:54.243Z,35.28
2022-08-04T06:25:34.430Z,34.90
2022-08-04T06:28:06.975Z,34.59
2022-08-04T06:30:37.353Z,33.93
2022-08-04T06:33:24.093Z,33.89
2022-08-04T06:35:55.423Z,33.90
2022-08-04T06:38:25.571Z,33.68
2022-08-04T06:40:58.376Z,33.72
2022-08-04T06:43:32.489Z,33.35
2022-08-04T06:46:11.761Z,33.74
2022-08-04T06:48:40.634Z,34.15
2022-08-04T06:51:24.569Z,34.12
2022-08-04T06:53:57.221Z,34.75
2022-08-04T06:56:27.853Z,35.14
2022-08-04T06:58:56.350Z,35.56
2022-08-04T07:01:27.073Z,36.08
2022-08-04T07:03:55.912Z,36.46
2022-08-04T07:06:25.623Z,36.86
2022-08-04T07:08:54.593Z,37.03
2022-08-04T07:11:23.837Z,37.11
2022-08-04T07:13:52.737Z,37.68
2022-08-04T07:16:30.490Z,38.04
2022-08-04T07:18:59.108Z,38.21
2022-08-04T07:21:40.232Z,38.56
2022-08-04T07:24:09.380Z,39.08
2022-08-04T07:26:37.551Z,39.52
2022-08-04T07:29:05.831Z,39.94
2022-08-04T07:31:36.124Z,40.43
2022-08-04T07:34:20.724Z,40.73
2022-08-04T07:36:55.322Z,40.70
2022-08-04T07:39:29.336Z,40.95
2022-08-04T07:42:02.270Z,41.12
2022-08-04T07:44:32.606Z,41.39
2022-08-04T07:47:06.265Z,41.60
2022-08-04T07:49:54.965Z,41.75
2022-08-04T07:52:23.998Z,42.23
2022-08-04T07:54:53.809Z,42.74
2022-08-04T07:57:40.463Z,43.10
2022-08-04T08:00:12.299Z,43.27
2022-08-04T08:02:41.570Z,43.46
2022-08-04T08:05:13.132Z,43.40
2022-08-04T08:07:51.001Z,43.45
2022-08-04T08:10:24.348Z,43.52
2022-08-04T08:12:53.905Z,42.99
2022-08-04T08:15:23.102Z,43.08
2022-08-04T08:17:59.326Z,43.31
2022-08-04T08:20:30.848Z,43.23
2022-08-04T08:23:01.260Z,43.19
2022-08-04T08:25:31.843Z,42.93
2022-08-04T08:28:00.343Z,42.95
2022-08-04T08:30:31.714Z,42.37
2022-08-04T08:33:09.719Z,42.52
2022-08-04T08:36:13.884Z,42.39
2022-08-04T08:39:04.118Z,41.77
2022-08-04T08:42:02.962Z,41.64
2022-08-04T08:44:46.267Z,41.07
2022-08-04T08:48:04.590Z,40.97
2022-08-04T08:50:46.702Z,40.63
2022-08-04T08:53:50.457Z,40.52
2022-08-04T08:56:32.981Z,40.07
2022-08-04T08:59:25.453Z,39.35
2022-08-04T09:02:14.575Z,39.82
2022-08-04T09:04:48.972Z,39.43
2022-08-04T09:07:51.040Z,39.11
2022-08-04T09:10:33.659Z,38.52
2022-08-04T09:13:27.809Z,37.07
2022-08-04T09:16:26.740Z,36.64
2022-08-04T09:19:04.573Z,35.63
2022-08-04T09:21:40.155Z,35.51
2022-08-04T09:24:35.882Z,35.22
2022-08-04T09:27:18.632Z,35.00
2022-08-04T09:29:59.536Z,34.95
2022-08-04T09:32:39.923Z,34.92
2022-08-04T09:35:19.445Z,33.92
2022-08-04T09:38:02.869Z,33.08
2022-08-04T09:40:53.540Z,32.63
2022-08-04T09:43:59.380Z,32.48
2022-08-04T09:47:02.765Z,33.21
2022-08-04T09:49:42.635Z,32.29
2022-08-04T09:52:47.210Z,31.01
2022-08-04T09:55:53.695Z,32.13
2022-08-04T09:58:50.611Z,32.66
2022-08-04T10:01:23.706Z,32.52
2022-08-04T10:04:03.848Z,32.79
2022-08-04T10:07:02.681Z,31.73
2022-08-04T10:09:42.900Z,31.88
2022-08-04T10:12:10.779Z,31.92
2022-08-04T10:14:41.424Z,32.16
2022-08-04T10:17:31.188Z,32.34
2022-08-04T10:20:44.970Z,32.32
2022-08-04T10:23:27.629Z,31.81
2022-08-04T10:26:16.491Z,31.84
2022-08-04T10:28:55.580Z,31.73
2022-08-04T10:31:29.478Z,31.76
2022-08-04T10:34:13.310Z,31.62
2022-08-04T10:37:09.191Z,31.05
2022-08-04T10:40:08.941Z,30.82
2022-08-04T10:42:45.685Z,31.01
2022-08-04T10:45:25.799Z,31.58
2022-08-04T10:48:10.661Z,31.27
2022-08-04T10:50:45.329Z,31.50
2022-08-04T10:53:19.776Z,30.81
2022-08-04T10:56:06.579Z,30.27
2022-08-04T10:58:46.912Z,30.51
2022-08-04T11:01:51.014Z,30.32
2022-08-04T11:04:34.855Z,30.30
2022-08-04T11:07:04.046Z,30.46
2022-08-04T11:09:34.441Z,31.45
2022-08-04T11:12:17.239Z,31.35
2022-08-04T11:15:18.906Z,31.35
2022-08-04T11:17:53.941Z,30.98
2022-08-04T11:20:43.326Z,31.55
2022-08-04T11:23:16.597Z,31.42
2022-08-04T11:25:47.223Z,31.03
2022-08-04T11:28:40.121Z,30.31
2022-08-04T11:31:13.243Z,30.39
2022-08-04T11:33:47.235Z,30.66
2022-08-04T11:36:42.026Z,31.35
2022-08-04T11:39:22.494Z,31.37
2022-08-04T11:42:11.059Z,31.31
2022-08-04T11:45:04.626Z,31.62
2022-08-04T11:47:39.951Z,31.70
2022-08-04T11:50:20.457Z,31.77
2022-08-04T11:52:53.130Z,31.11
2022-08-04T11:55:23.125Z,30.41
2022-08-04T11:57:53.978Z,30.52
2022-08-04T12:00:22.851Z,30.81
2022-08-04T12:03:28.790Z,30.75
2022-08-04T12:06:07.409Z,30.72
2022-08-04T12:09:10.151Z,30.89
2022-08-04T12:11:51.152Z,30.75
2022-08-04T12:14:31.518Z,30.55
2022-08-04T12:17:05.003Z,30.82
2022-08-04T12:20:05.269Z,31.22
2022-08-04T12:22:40.836Z,31.26
2022-08-04T12:25:14.545Z,32.11
2022-08-04T12:27:42.804Z,31.78
2022-08-04T12:31:00.012Z,32.02
2022-08-04T12:33:12.978Z,32.44
2022-08-04T12:36:11.610Z,32.28
2022-08-04T12:38:52.828Z,31.71
2022-08-04T12:41:28.624Z,31.87
2022-08-04T12:44:07.624Z,32.65
2022-08-04T12:47:28.232Z,31.93
2022-08-04T12:49:56.262Z,32.25
2022-08-04T12:55:22.818Z,32.09
2022-08-04T12:57:52.910Z,31.76
2022-08-04T13:00:36.733Z,31.53
2022-08-04T13:03:14.733Z,32.17
2022-08-04T13:05:43.881Z,32.60
2022-08-04T13:08:14.131Z,32.87
2022-08-04T13:10:46.470Z,33.25
2022-08-04T13:13:20.327Z,33.51
2022-08-04T13:16:08.719Z,33.59
2022-08-04T13:18:47.873Z,33.37
2022-08-04T13:21:23.100Z,33.52
2022-08-04T13:24:10.054Z,34.00
2022-08-04T13:26:55.631Z,33.96
2022-08-04T13:29:58.949Z,34.11
2022-08-04T13:32:22.621Z,34.26
2022-08-04T13:34:54.071Z,34.36
2022-08-04T13:37:27.145Z,33.98
2022-08-04T13:39:57.614Z,34.33
2022-08-04T13:42:27.502Z,34.07
2022-08-04T13:44:59.948Z,33.87
2022-08-04T13:47:34.415Z,34.14
2022-08-04T13:50:27.960Z,34.58
2022-08-04T13:53:00.090Z,34.78
2022-08-04T13:55:32.804Z,34.92
2022-08-04T13:58:11.500Z,35.21
2022-08-04T14:00:50.573Z,35.16
2022-08-04T14:03:32.729Z,35.04
2022-08-04T14:06:21.540Z,34.88
2022-08-04T14:08:57.160Z,34.87
2022-08-04T14:12:10.168Z,35.15
2022-08-04T14:14:25.835Z,35.26
2022-08-04T14:17:05.879Z,35.01
2022-08-04T14:19:50.752Z,35.01
2022-08-04T14:22:37.562Z,34.71
2022-08-04T14:25:16.266Z,34.71
2022-08-04T14:27:55.136Z,35.00
2022-08-04T14:30:38.070Z,35.00
2022-08-04T14:34:01.403Z,35.00
2022-08-04T14:36:01.647Z,35.11
2022-08-04T14:38:54.656Z,35.64
2022-08-04T14:41:29.919Z,35.64
2022-08-04T14:44:00.641Z,35.72
2022-08-04T14:46:36.523Z,35.33
2022-08-04T14:49:11.112Z,35.31
2022-08-04T14:52:01.809Z,35.53
2022-08-04T14:54:32.952Z,35.37
2022-08-04T14:57:06.966Z,35.41
2022-08-04T15:00:04.029Z,35.18
2022-08-04T15:02:36.333Z,35.42
2022-08-04T15:06:02.228Z,35.25
2022-08-04T15:07:54.149Z,34.99
2022-08-04T15:10:22.503Z,34.95
2022-08-04T15:12:51.089Z,35.14
2022-08-04T15:15:36.042Z,34.93
2022-08-04T15:18:09.019Z,35.07
2022-08-04T15:20:47.764Z,34.73
2022-08-04T15:23:16.773Z,35.06
2022-08-04T15:25:49.640Z,34.97
2022-08-04T15:28:23.582Z,35.03
2022-08-04T15:30:54.487Z,34.96
2022-08-04T15:33:33.806Z,35.33
2022-08-04T15:36:14.804Z,34.96
2022-08-04T15:39:05.674Z,35.44
2022-08-04T15:41:58.502Z,35.85
2022-08-04T15:44:47.611Z,35.27
2022-08-04T15:47:17.078Z,35.63
2022-08-04T15:49:45.843Z,35.37
2022-08-04T15:52:16.844Z,35.17
2022-08-04T15:54:52.654Z,35.27
2022-08-04T15:58:00.269Z,35.11
2022-08-04T16:00:28.937Z,35.15
2022-08-04T16:02:57.146Z,35.41
2022-08-04T16:05:25.084Z,35.53
2022-08-04T16:07:57.584Z,35.91
2022-08-04T16:10:31.447Z,36.20
2022-08-04T16:13:07.016Z,36.32
2022-08-04T16:15:39.103Z,36.57
2022-08-04T16:18:13.835Z,36.67
2022-08-04T16:20:59.236Z,36.69
2022-08-04T16:23:54.949Z,36.69
2022-08-04T16:26:45.807Z,36.69
2022-08-04T16:29:23.491Z,36.96
2022-08-04T16:32:12.901Z,37.13
2022-08-04T16:34:54.779Z,37.20
2022-08-04T16:37:40.806Z,37.16
2022-08-04T16:40:38.242Z,37.69
2022-08-04T16:43:13.494Z,37.74
2022-08-04T16:46:00.331Z,37.81
2022-08-04T16:48:36.563Z,38.17
2022-08-04T16:51:07.389Z,38.41
2022-08-04T16:54:04.258Z,38.54
2022-08-04T16:56:35.599Z,39.30
2022-08-04T16:59:12.383Z,39.29
2022-08-04T17:01:48.945Z,39.23
2022-08-04T17:04:18.052Z,39.25
2022-08-04T17:06:49.545Z,39.48
2022-08-04T17:09:19.772Z,39.73
2022-08-04T17:11:48.551Z,39.75
2022-08-04T17:14:25.967Z,39.84
2022-08-04T17:16:57.931Z,40.05
2022-08-04T17:19:27.026Z,40.19
2022-08-04T17:22:10.164Z,40.59
2022-08-04T17:24:41.207Z,40.68
2022-08-04T17:28:08.539Z,40.85
2022-08-04T17:29:59.372Z,41.07
2022-08-04T17:32:27.841Z,41.32
2022-08-04T17:35:01.582Z,41.78
2022-08-04T17:37:38.979Z,41.78
2022-08-04T17:44:01.606Z,42.32
2022-08-04T17:46:29.731Z,42.48
2022-08-04T17:49:04.721Z,42.65
2022-08-04T17:52:04.929Z,42.94
2022-08-04T17:54:29.936Z,42.83
2022-08-04T17:57:21.910Z,43.05
2022-08-04T18:00:00.021Z,43.01
2022-08-04T18:02:34.856Z,42.93
2022-08-04T18:05:06.888Z,43.11
2022-08-04T18:08:46.278Z,43.08
2022-08-04T18:10:51.692Z,43.29
2022-08-04T18:13:28.593Z,43.26
2022-08-04T18:16:14.492Z,43.47
2022-08-04T18:19:10.462Z,43.77
2022-08-04T18:21:46.881Z,43.85
2022-08-04T18:24:34.345Z,44.27
2022-08-04T18:27:18.758Z,44.59
2022-08-04T18:30:14.539Z,45.05
2022-08-04T18:32:35.823Z,45.47
2022-08-04T18:35:07.241Z,45.68
2022-08-04T18:38:05.587Z,46.13
2022-08-04T18:40:33.238Z,46.56
2022-08-04T18:43:14.260Z,46.97
2022-08-04T18:45:51.266Z,47.16
2022-08-04T18:48:19.809Z,47.26
2022-08-04T18:51:09.512Z,47.36
2022-08-04T18:53:36.271Z,47.51
2022-08-04T18:56:06.275Z,47.62
2022-08-04T18:58:45.249Z,47.64
2022-08-04T19:01:14.330Z,47.71
2022-08-04T19:03:44.136Z,47.88
2022-08-04T19:06:15.888Z,47.91
2022-08-04T19:08:44.930Z,48.06
2022-08-04T19:11:38.362Z,48.05
2022-08-04T19:14:04.171Z,48.23
2022-08-04T19:16:33.633Z,48.17
2022-08-04T19:19:05.534Z,48.15
2022-08-04T19:21:58.830Z,48.24
2022-08-04T19:24:34.441Z,48.28
2022-08-04T19:27:06.944Z,48.35
2022-08-04T19:29:41.491Z,48.45
2022-08-04T19:32:14.747Z,48.46
2022-08-04T19:34:47.125Z,48.54
2022-08-04T19:38:01.177Z,48.53
2022-08-04T19:40:09.536Z,48.67
2022-08-04T19:42:38.240Z,48.75
2022-08-04T19:45:07.278Z,48.84
2022-08-04T19:48:17.948Z,48.91
2022-08-04T19:50:24.304Z,49.02
2022-08-04T19:52:53.503Z,49.14
2022-08-04T19:55:37.250Z,49.18
2022-08-04T19:58:08.319Z,49.39
2022-08-04T20:00:39.124Z,49.63
2022-08-04T20:03:11.785Z,49.61
2022-08-04T20:05:55.366Z,49.68
2022-08-04T20:08:28.012Z,49.87
2022-08-04T20:10:57.788Z,50.04
2022-08-04T20:13:37.082Z,50.18
2022-08-04T20:16:28.567Z,50.21
2022-08-04T20:19:00.801Z,50.39
2022-08-04T20:21:53.763Z,50.43
2022-08-04T20:24:39.429Z,50.78
2022-08-04T20:27:14.667Z,50.83
2022-08-04T20:29:49.239Z,50.92
2022-08-04T20:32:21.841Z,50.91
2022-08-04T20:34:52.345Z,51.16
2022-08-04T20:37:24.922Z,51.17
2022-08-04T20:40:05.215Z,51.29
2022-08-04T20:42:34.460Z,51.42
2022-08-04T20:45:02.765Z,51.42
2022-08-04T20:47:35.704Z,51.48
2022-08-04T20:50:09.192Z,51.78
2022-08-04T20:52:39.521Z,51.81
2022-08-04T20:55:08.915Z,51.77
2022-08-04T20:57:48.109Z,51.89
2022-08-04T21:00:29.680Z,52.05
2022-08-04T21:02:59.504Z,51.93
2022-08-04T21:05:28.780Z,52.14
2022-08-04T21:07:59.644Z,52.24
2022-08-04T21:10:28.140Z,52.47
2022-08-04T21:12:56.371Z,52.58
2022-08-04T21:15:26.386Z,52.50
2022-08-04T21:18:14.439Z,52.68
2022-08-04T21:20:48.245Z,52.83
2022-08-04T21:23:16.726Z,53.06
2022-08-04T21:25:51.127Z,53.17
2022-08-04T21:28:20.574Z,53.13
2022-08-04T21:33:49.947Z,53.25
2022-08-04T21:36:20.202Z,53.49
2022-08-04T21:38:51.318Z,53.57
2022-08-04T21:41:24.693Z,53.54
2022-08-04T21:43:53.758Z,53.75
2022-08-04T21:46:22.401Z,53.87
2022-08-04T21:48:50.841Z,53.89
2022-08-04T21:52:00.204Z,54.02
2022-08-04T21:54:16.938Z,53.99
2022-08-04T21:56:50.823Z,54.18
2022-08-04T21:59:23.257Z,54.31
2022-08-04T22:01:56.406Z,54.26
2022-08-04T22:04:24.487Z,54.37
2022-08-04T22:06:52.801Z,54.46
2022-08-04T22:09:21.884Z,54.53
2022-08-04T22:11:51.783Z,54.55
2022-08-04T22:14:29.466Z,54.65
2022-08-04T22:17:04.034Z,55.03
2022-08-04T22:19:49.992Z,55.15
2022-08-04T22:22:24.739Z,55.23
2022-08-04T22:24:58.930Z,55.52
2022-08-04T22:27:47.281Z,55.62
2022-08-04T22:30:17.632Z,55.55
2022-08-04T22:32:47.328Z,55.82
2022-08-04T22:35:35.735Z,55.98
2022-08-04T22:38:24.458Z,55.82
2022-08-04T22:40:58.187Z,55.97
2022-08-04T22:43:32.381Z,56.00
2022-08-04T22:46:06.896Z,56.09
2022-08-04T22:48:38.087Z,56.32
2022-08-04T22:51:07.649Z,56.52
2022-08-04T22:53:36.876Z,56.47
2022-08-04T22:56:09.874Z,56.76
2022-08-04T22:58:45.668Z,56.71
2022-08-04T23:01:18.823Z,56.95
2022-08-04T23:03:51.161Z,56.84
2022-08-04T23:06:28.573Z,56.95
2022-08-04T23:08:58.059Z,57.02
2022-08-04T23:11:34.662Z,57.07
2022-08-04T23:14:05.246Z,57.14
2022-08-04T23:16:40.440Z,57.51
2022-08-04T23:19:12.107Z,57.43
2022-08-04T23:21:47.292Z,57.22
2022-08-04T23:24:16.052Z,57.26
2022-08-04T23:26:46.847Z,57.33
2022-08-04T23:29:15.595Z,57.00
2022-08-04T23:31:59.970Z,57.11
2022-08-04T23:34:29.486Z,56.89
2022-08-04T23:36:59.078Z,56.85
2022-08-04T23:40:04.187Z,56.89
2022-08-04T23:42:21.150Z,56.87
2022-08-04T23:44:50.199Z,56.77
2022-08-04T23:48:18.568Z,56.62
2022-08-04T23:50:06.757Z,56.69
2022-08-04T23:52:34.867Z,56.63
2022-08-04T23:55:03.757Z,56.73
2022-08-04T23:58:06.559Z,56.58
